Time;durP1;ratioP1;P1;durP2;ratioP2;P2;SDS_P1;SDS_P2;PMS_P1;PMS_P2;Temp;Humidity;BMP_temperature;BMP_pressure;BME280_temperature;BME280_humidity;BME280_pressure;Samples;Min_cycle;Max_cycle;Signal;HPM_P1;HPM_P2
2022/10/14 00:02:24;;;;;;;;;;;13.70;99.90;;;;;;5089944;28;19930;-68
2022/10/14 00:04:51;;;;;;;;;;;13.70;99.90;;;;;;5090344;28;19967;-68
2022/10/14 00:07:18;;;;;;;;;;;13.80;99.90;;;;;;5089926;28;20478;-68
2022/10/14 00:09:45;;;;;;;;;;;13.80;99.90;;;;;;5094160;28;20730;-68
2022/10/14 00:12:12;;;;;;;;;;;13.70;99.90;;;;;;5090553;28;19932;-68
2022/10/14 00:14:38;;;;;;;;;;;13.80;99.90;;;;;;5090206;28;20035;-68
2022/10/14 00:17:05;;;;;;;;;;;13.80;99.90;;;;;;5091104;28;19924;-68
2022/10/14 00:19:33;;;;;;;;;;;13.80;99.90;;;;;;5093866;28;19971;-68
2022/10/14 00:21:59;;;;;;;;;;;13.80;99.90;;;;;;5090429;28;19934;-68
2022/10/14 00:24:26;;;;;;;;;;;13.80;99.90;;;;;;5087819;28;19930;-69
2022/10/14 00:26:53;;;;;;;;;;;13.80;99.90;;;;;;5089430;28;19924;-68
2022/10/14 00:29:19;;;;;;;;;;;13.80;99.90;;;;;;5086587;28;19931;-68
2022/10/14 00:31:46;;;;;;;;;;;13.80;99.90;;;;;;5090008;28;19931;-68
2022/10/14 00:34:14;;;;;;;;;;;13.80;99.90;;;;;;5089266;28;20280;-69
2022/10/14 00:36:43;;;;;;;;;;;13.80;99.90;;;;;;5097433;28;20023;-69
2022/10/14 00:39:10;;;;;;;;;;;13.80;99.90;;;;;;5089464;28;19924;-69
2022/10/14 00:41:37;;;;;;;;;;;13.80;99.90;;;;;;5095141;28;19924;-69
2022/10/14 00:44:05;;;;;;;;;;;13.80;99.90;;;;;;5087920;28;19924;-68
2022/10/14 00:46:33;;;;;;;;;;;13.80;99.90;;;;;;5091848;28;19997;-68
2022/10/14 00:49:01;;;;;;;;;;;13.80;99.90;;;;;;5090197;28;19955;-68
2022/10/14 00:51:28;;;;;;;;;;;13.80;99.90;;;;;;5089782;28;20019;-68
2022/10/14 00:53:56;;;;;;;;;;;13.80;99.90;;;;;;5084116;28;19924;-68
2022/10/14 00:56:24;;;;;;;;;;;13.80;99.90;;;;;;5087603;28;19939;-68
2022/10/14 00:58:51;;;;;;;;;;;13.90;99.90;;;;;;5086611;28;20393;-68
2022/10/14 01:01:18;;;;;;;;;;;13.80;99.90;;;;;;5089421;28;20406;-68
2022/10/14 01:03:45;;;;;;;;;;;13.80;99.90;;;;;;5088400;28;19930;-68
2022/10/14 01:06:18;;;;;;;;;;;13.90;99.90;;;;;;5093538;28;19939;-68
2022/10/14 01:08:46;;;;;;;;;;;13.90;99.90;;;;;;5088915;28;19962;-68
2022/10/14 01:11:16;;;;;;;;;;;13.90;99.90;;;;;;5092015;28;20227;-69
2022/10/14 01:13:48;;;;;;;;;;;13.80;99.90;;;;;;5085785;28;19930;-68
2022/10/14 01:16:17;;;;;;;;;;;13.90;99.90;;;;;;5084888;28;20690;-68
2022/10/14 01:18:51;;;;;;;;;;;13.90;99.90;;;;;;5087955;28;20023;-68
2022/10/14 01:21:24;;;;;;;;;;;13.80;99.90;;;;;;5091905;28;19924;-68
2022/10/14 01:24:03;;;;;;;;;;;13.90;99.90;;;;;;5087710;28;19931;-69
2022/10/14 01:26:50;;;;;;;;;;;13.80;99.90;;;;;;5094863;28;19924;-68
2022/10/14 01:29:22;;;;;;;;;;;13.90;99.90;;;;;;5081564;28;19943;-68
2022/10/14 01:31:54;;;;;;;;;;;13.90;99.90;;;;;;5096713;28;20386;-68
2022/10/14 01:34:22;;;;;;;;;;;13.80;99.90;;;;;;5087891;28;19928;-68
2022/10/14 01:36:52;;;;;;;;;;;13.80;99.90;;;;;;5087485;28;19924;-68
2022/10/14 01:39:21;;;;;;;;;;;13.80;99.90;;;;;;5087358;28;19924;-68
2022/10/14 01:41:51;;;;;;;;;;;13.80;99.90;;;;;;5091329;28;20366;-68
2022/10/14 01:44:19;;;;;;;;;;;13.80;99.90;;;;;;5086217;28;19924;-68
2022/10/14 01:46:47;;;;;;;;;;;13.80;99.90;;;;;;5095971;28;19924;-68
2022/10/14 01:49:19;;;;;;;;;;;13.90;99.90;;;;;;5085776;28;19924;-68
2022/10/14 01:51:48;;;;;;;;;;;13.80;99.90;;;;;;5089819;28;19924;-68
2022/10/14 01:54:16;;;;;;;;;;;13.80;99.90;;;;;;5083993;28;19932;-66
2022/10/14 01:56:43;;;;;;;;;;;13.90;99.90;;;;;;5090046;28;19946;-66
2022/10/14 01:59:12;;;;;;;;;;;13.90;99.90;;;;;;5086991;28;19928;-67
2022/10/14 02:01:38;;;;;;;;;;;13.90;99.90;;;;;;5096174;28;20378;-67
2022/10/14 02:04:13;;;;;;;;;;;13.80;99.90;;;;;;5088660;28;19934;-67
2022/10/14 02:06:43;;;;;;;;;;;13.90;99.90;;;;;;5088323;28;19924;-67
2022/10/14 02:09:13;;;;;;;;;;;13.90;99.90;;;;;;5084920;28;20298;-67
2022/10/14 02:11:44;;;;;;;;;;;13.90;99.90;;;;;;5084993;28;20298;-67
2022/10/14 02:14:16;;;;;;;;;;;13.90;99.90;;;;;;5087571;28;20022;-67
2022/10/14 02:16:48;;;;;;;;;;;13.90;99.90;;;;;;5087070;28;19934;-67
2022/10/14 02:19:22;;;;;;;;;;;13.90;99.90;;;;;;5089662;28;19928;-67
2022/10/14 02:21:53;;;;;;;;;;;13.90;99.90;;;;;;5087398;28;20071;-67
2022/10/14 02:24:22;;;;;;;;;;;13.90;99.90;;;;;;5088147;28;20041;-67
2022/10/14 02:26:50;;;;;;;;;;;13.80;99.90;;;;;;5087831;28;19924;-67
2022/10/14 02:29:17;;;;;;;;;;;13.90;99.90;;;;;;5088390;28;19931;-67
2022/10/14 02:31:45;;;;;;;;;;;13.90;99.90;;;;;;5092294;28;20019;-67
2022/10/14 02:34:13;;;;;;;;;;;13.80;99.90;;;;;;5087640;28;19932;-67
2022/10/14 02:36:41;;;;;;;;;;;13.90;99.90;;;;;;5087031;28;20296;-68
2022/10/14 02:39:11;;;;;;;;;;;13.90;99.90;;;;;;5089963;28;19928;-67
2022/10/14 02:41:38;;;;;;;;;;;13.90;99.90;;;;;;5093361;28;19924;-68
2022/10/14 02:44:04;;;;;;;;;;;13.90;99.90;;;;;;5089367;28;20074;-67
2022/10/14 02:46:32;;;;;;;;;;;13.90;99.90;;;;;;5089482;28;19998;-67
2022/10/14 02:48:58;;;;;;;;;;;13.90;99.90;;;;;;5093987;28;19935;-68
2022/10/14 02:51:25;;;;;;;;;;;13.90;99.90;;;;;;5089500;28;19931;-67
2022/10/14 02:53:52;;;;;;;;;;;13.90;99.90;;;;;;5089522;28;19971;-67
2022/10/14 02:56:19;;;;;;;;;;;13.90;99.90;;;;;;5081622;28;20684;-67
2022/10/14 02:58:46;;;;;;;;;;;13.90;99.90;;;;;;5090694;28;20438;-68
2022/10/14 03:01:13;;;;;;;;;;;13.90;99.90;;;;;;5092377;28;20449;-67
2022/10/14 03:03:39;;;;;;;;;;;13.90;99.90;;;;;;5091968;28;20370;-67
2022/10/14 03:06:06;;;;;;;;;;;13.90;99.90;;;;;;5090636;28;19924;-67
2022/10/14 03:08:33;;;;;;;;;;;13.90;99.90;;;;;;5092285;28;20386;-67
2022/10/14 03:11:00;;;;;;;;;;;13.90;99.90;;;;;;5091765;28;19971;-66
2022/10/14 03:13:28;;;;;;;;;;;13.90;99.90;;;;;;5092624;28;19947;-66
2022/10/14 03:15:54;;;;;;;;;;;13.90;99.90;;;;;;5089019;28;19962;-65
2022/10/14 03:18:21;;;;;;;;;;;13.90;99.90;;;;;;5091951;28;19943;-66
2022/10/14 03:20:48;;;;;;;;;;;13.90;99.90;;;;;;5098818;28;20366;-65
2022/10/14 03:23:14;;;;;;;;;;;13.90;99.90;;;;;;5089673;28;19938;-66
2022/10/14 03:25:43;;;;;;;;;;;13.90;99.90;;;;;;5094081;28;19932;-66
2022/10/14 03:28:10;;;;;;;;;;;13.90;99.90;;;;;;5089460;28;20022;-67
2022/10/14 03:30:38;;;;;;;;;;;13.90;99.90;;;;;;5090640;28;19924;-66
2022/10/14 03:33:05;;;;;;;;;;;13.90;99.90;;;;;;5080215;28;19924;-66
2022/10/14 03:35:31;;;;;;;;;;;14.00;99.90;;;;;;5099665;28;19923;-66
2022/10/14 03:38:01;;;;;;;;;;;14.00;99.90;;;;;;5094558;28;20030;-67
2022/10/14 03:40:28;;;;;;;;;;;13.90;99.90;;;;;;5092152;28;19932;-67
2022/10/14 03:42:57;;;;;;;;;;;13.90;99.90;;;;;;5090315;28;19930;-67
2022/10/14 03:45:23;;;;;;;;;;;13.90;99.90;;;;;;5088492;28;20427;-67
2022/10/14 03:47:51;;;;;;;;;;;13.90;99.90;;;;;;5088159;28;20007;-66
2022/10/14 03:50:18;;;;;;;;;;;13.90;99.90;;;;;;5088087;28;19924;-66
2022/10/14 03:52:45;;;;;;;;;;;13.90;99.90;;;;;;5092088;28;19924;-66
2022/10/14 03:55:11;;;;;;;;;;;13.90;99.90;;;;;;5092454;28;19924;-66
2022/10/14 03:57:38;;;;;;;;;;;13.90;99.90;;;;;;5090438;28;19947;-66
2022/10/14 04:00:06;;;;;;;;;;;14.00;99.90;;;;;;5094391;28;20037;-67
2022/10/14 04:02:32;;;;;;;;;;;13.90;99.90;;;;;;5090555;28;19930;-66
2022/10/14 04:05:00;;;;;;;;;;;13.90;99.90;;;;;;5091016;28;20011;-67
2022/10/14 04:07:27;;;;;;;;;;;13.90;99.90;;;;;;5091608;28;19924;-66
2022/10/14 04:09:54;;;;;;;;;;;13.90;99.90;;;;;;5089803;28;19939;-66
2022/10/14 04:12:21;;;;;;;;;;;13.90;99.90;;;;;;5090727;28;19928;-66
2022/10/14 04:14:47;;;;;;;;;;;13.90;99.90;;;;;;5089063;28;19928;-67
2022/10/14 04:17:14;;;;;;;;;;;13.90;99.90;;;;;;5094945;28;20031;-67
2022/10/14 04:19:41;;;;;;;;;;;13.90;99.90;;;;;;5088034;28;19924;-67
2022/10/14 04:22:09;;;;;;;;;;;13.90;99.90;;;;;;5094073;28;20250;-67
2022/10/14 04:24:36;;;;;;;;;;;13.90;99.90;;;;;;5087126;28;19931;-67
2022/10/14 04:27:02;;;;;;;;;;;13.90;99.90;;;;;;5084245;28;19924;-67
2022/10/14 04:29:29;;;;;;;;;;;13.90;99.90;;;;;;5085715;28;20312;-66
2022/10/14 04:31:56;;;;;;;;;;;13.90;99.90;;;;;;5089471;28;19924;-66
2022/10/14 04:34:22;;;;;;;;;;;13.90;99.90;;;;;;5088506;28;20014;-67
2022/10/14 04:36:49;;;;;;;;;;;13.80;99.90;;;;;;5088516;28;20379;-66
2022/10/14 04:39:17;;;;;;;;;;;13.90;99.90;;;;;;5087261;28;20222;-66
2022/10/14 04:41:44;;;;;;;;;;;13.90;99.90;;;;;;5090709;28;20371;-67
2022/10/14 04:44:11;;;;;;;;;;;13.90;99.90;;;;;;5088733;28;19932;-67
2022/10/14 04:46:37;;;;;;;;;;;13.80;99.90;;;;;;5093105;28;19982;-66
2022/10/14 04:49:04;;;;;;;;;;;13.80;99.90;;;;;;5082993;28;20301;-67
2022/10/14 04:51:31;;;;;;;;;;;13.80;99.90;;;;;;5090736;28;19924;-66
2022/10/14 04:53:57;;;;;;;;;;;13.90;99.90;;;;;;5086938;28;19975;-67
2022/10/14 04:56:25;;;;;;;;;;;13.90;99.90;;;;;;5087018;28;19924;-67
2022/10/14 04:58:52;;;;;;;;;;;13.90;99.90;;;;;;5091553;28;19931;-66
2022/10/14 05:01:19;;;;;;;;;;;13.90;99.90;;;;;;5086781;28;20008;-66
2022/10/14 05:03:47;;;;;;;;;;;13.90;99.90;;;;;;5085626;28;20009;-66
2022/10/14 05:06:14;;;;;;;;;;;13.80;99.90;;;;;;5084492;28;20370;-67
2022/10/14 05:08:40;;;;;;;;;;;13.80;99.90;;;;;;5087819;28;19932;-69
2022/10/14 05:11:07;;;;;;;;;;;13.90;99.90;;;;;;5086705;28;20011;-66
2022/10/14 05:13:35;;;;;;;;;;;13.80;99.90;;;;;;5088322;28;20398;-66
2022/10/14 05:16:03;;;;;;;;;;;13.80;99.90;;;;;;5097760;28;19932;-66
2022/10/14 05:18:30;;;;;;;;;;;13.80;99.90;;;;;;5087018;28;20035;-66
2022/10/14 05:20:57;;;;;;;;;;;13.90;99.90;;;;;;5088447;28;19924;-69
2022/10/14 05:23:24;;;;;;;;;;;13.90;99.90;;;;;;5084779;28;19935;-68
2022/10/14 05:25:51;;;;;;;;;;;13.80;99.90;;;;;;5084699;28;19932;-66
2022/10/14 05:28:18;;;;;;;;;;;13.80;99.90;;;;;;5085644;28;20286;-68
2022/10/14 05:30:46;;;;;;;;;;;13.80;99.90;;;;;;5087554;28;20007;-66
2022/10/14 05:33:13;;;;;;;;;;;13.80;99.90;;;;;;5081387;28;20015;-66
2022/10/14 05:35:40;;;;;;;;;;;13.80;99.90;;;;;;5081544;28;20445;-67
2022/10/14 05:38:07;;;;;;;;;;;13.80;99.90;;;;;;5081707;28;19932;-67
2022/10/14 05:40:33;;;;;;;;;;;13.80;99.90;;;;;;5082049;28;20397;-67
2022/10/14 05:43:00;;;;;;;;;;;13.80;99.90;;;;;;5079632;28;19924;-67
2022/10/14 05:45:27;;;;;;;;;;;13.80;99.90;;;;;;5082206;28;19984;-66
2022/10/14 05:47:55;;;;;;;;;;;13.80;99.90;;;;;;5083572;28;20010;-67
2022/10/14 05:50:21;;;;;;;;;;;13.80;99.90;;;;;;5083793;28;19924;-66
2022/10/14 05:52:48;;;;;;;;;;;13.80;99.90;;;;;;5081978;28;20125;-67
2022/10/14 05:55:15;;;;;;;;;;;13.80;99.90;;;;;;5089403;28;19923;-67
2022/10/14 05:57:43;;;;;;;;;;;13.80;99.90;;;;;;5087551;28;19924;-67
2022/10/14 06:00:10;;;;;;;;;;;13.80;99.90;;;;;;5090262;28;19967;-68
2022/10/14 06:02:37;;;;;;;;;;;13.80;99.90;;;;;;5091653;28;19924;-68
2022/10/14 06:05:05;;;;;;;;;;;13.80;99.90;;;;;;5087621;28;19928;-68
2022/10/14 06:07:35;;;;;;;;;;;13.80;99.90;;;;;;5087045;28;19935;-66
2022/10/14 06:10:01;;;;;;;;;;;13.90;99.90;;;;;;5076411;28;19981;-71
2022/10/14 06:12:28;;;;;;;;;;;13.90;99.90;;;;;;5080021;28;20028;-68
2022/10/14 06:14:55;;;;;;;;;;;13.90;99.90;;;;;;5087979;28;19928;-67
2022/10/14 06:17:21;;;;;;;;;;;13.90;99.90;;;;;;5083680;28;19990;-67
2022/10/14 06:19:48;;;;;;;;;;;13.90;99.90;;;;;;5082647;28;20031;-65
2022/10/14 06:22:16;;;;;;;;;;;13.90;99.90;;;;;;5078513;28;20371;-65
2022/10/14 06:24:43;;;;;;;;;;;13.90;99.90;;;;;;5078749;28;19932;-67
2022/10/14 06:27:09;;;;;;;;;;;13.90;99.90;;;;;;5083418;28;19938;-67
2022/10/14 06:29:37;;;;;;;;;;;14.00;99.90;;;;;;5081999;28;19978;-67
2022/10/14 06:32:04;;;;;;;;;;;14.00;99.90;;;;;;5080656;28;19939;-68
2022/10/14 06:34:31;;;;;;;;;;;14.00;99.90;;;;;;5082425;28;19931;-67
2022/10/14 06:36:57;;;;;;;;;;;14.00;99.90;;;;;;5086002;28;19924;-67
2022/10/14 06:39:25;;;;;;;;;;;14.00;99.90;;;;;;5086849;28;19928;-67
2022/10/14 06:41:52;;;;;;;;;;;14.00;99.90;;;;;;5085141;28;20011;-67
2022/10/14 06:44:20;;;;;;;;;;;14.00;99.90;;;;;;5084432;28;20545;-67
2022/10/14 06:46:47;;;;;;;;;;;14.00;99.90;;;;;;5085575;28;20309;-67
2022/10/14 06:49:13;;;;;;;;;;;14.00;99.90;;;;;;5085255;28;19925;-67
2022/10/14 06:51:40;;;;;;;;;;;14.00;99.90;;;;;;5083746;28;20293;-67
2022/10/14 06:54:07;;;;;;;;;;;14.00;99.90;;;;;;5082082;28;20011;-67
2022/10/14 06:56:35;;;;;;;;;;;14.00;99.90;;;;;;5081618;28;20336;-67
2022/10/14 06:59:02;;;;;;;;;;;14.00;99.90;;;;;;5090148;28;20298;-67
2022/10/14 07:01:29;;;;;;;;;;;14.00;99.90;;;;;;5086510;28;19928;-67
2022/10/14 07:03:55;;;;;;;;;;;14.00;99.90;;;;;;5093908;28;19939;-67
2022/10/14 07:06:22;;;;;;;;;;;14.10;99.90;;;;;;5085561;28;19930;-67
2022/10/14 07:08:49;;;;;;;;;;;14.10;99.90;;;;;;5084632;28;19928;-66
2022/10/14 07:11:15;;;;;;;;;;;14.10;99.90;;;;;;5088641;28;19930;-66
2022/10/14 07:13:44;;;;;;;;;;;14.10;99.90;;;;;;5089038;28;20011;-66
2022/10/14 07:16:11;;;;;;;;;;;14.20;99.90;;;;;;5084246;28;19998;-66
2022/10/14 07:18:38;;;;;;;;;;;14.20;99.90;;;;;;5086542;28;20031;-66
2022/10/14 07:21:05;;;;;;;;;;;14.20;99.90;;;;;;5082148;28;19924;-67
2022/10/14 07:23:31;;;;;;;;;;;14.20;99.90;;;;;;5087504;28;20271;-67
2022/10/14 07:25:58;;;;;;;;;;;14.30;99.90;;;;;;5088091;28;19924;-68
2022/10/14 07:28:25;;;;;;;;;;;14.30;99.90;;;;;;5090789;28;19935;-67
2022/10/14 07:31:01;;;;;;;;;;;14.30;99.90;;;;;;5089784;28;20351;-66
2022/10/14 07:33:28;;;;;;;;;;;14.30;99.90;;;;;;5081805;28;19924;-67
2022/10/14 07:35:54;;;;;;;;;;;14.40;99.90;;;;;;5079691;28;19932;-67
2022/10/14 07:38:21;;;;;;;;;;;14.40;99.90;;;;;;5079178;28;19939;-66
2022/10/14 07:40:55;;;;;;;;;;;14.40;99.90;;;;;;5079426;28;20350;-66
2022/10/14 07:43:22;;;;;;;;;;;14.40;99.90;;;;;;5083097;28;20070;-65
2022/10/14 07:45:50;;;;;;;;;;;14.50;99.90;;;;;;5086584;28;20017;-66
2022/10/14 07:48:18;;;;;;;;;;;14.50;99.90;;;;;;5085068;28;19936;-66
2022/10/14 07:50:49;;;;;;;;;;;14.50;99.90;;;;;;5084514;28;19932;-66
2022/10/14 07:53:17;;;;;;;;;;;14.50;99.90;;;;;;5088865;28;19924;-67
2022/10/14 07:55:50;;;;;;;;;;;14.50;99.90;;;;;;5093743;28;19967;-66
2022/10/14 07:58:18;;;;;;;;;;;14.60;99.90;;;;;;5086773;28;20026;-67
2022/10/14 08:00:45;;;;;;;;;;;14.60;99.90;;;;;;5091203;28;20331;-65
2022/10/14 08:03:12;;;;;;;;;;;14.70;99.90;;;;;;5085082;28;19928;-65
2022/10/14 08:05:40;;;;;;;;;;;14.70;99.90;;;;;;5085795;28;19959;-66
2022/10/14 08:08:07;;;;;;;;;;;14.70;99.90;;;;;;5075630;28;20010;-67
2022/10/14 08:10:33;;;;;;;;;;;14.80;99.90;;;;;;5081603;28;19924;-67
2022/10/14 08:13:00;;;;;;;;;;;14.80;99.90;;;;;;5088434;28;19924;-67
2022/10/14 08:15:29;;;;;;;;;;;14.80;99.90;;;;;;5079489;28;20022;-66
2022/10/14 08:17:55;;;;;;;;;;;14.80;99.90;;;;;;5086177;28;19985;-66
2022/10/14 08:20:22;;;;;;;;;;;14.80;99.90;;;;;;5090158;28;19924;-67
2022/10/14 08:22:50;;;;;;;;;;;14.80;99.90;;;;;;5083150;28;21786;-66
2022/10/14 08:25:20;;;;;;;;;;;14.90;99.90;;;;;;5088360;28;19930;-66
2022/10/14 08:27:49;;;;;;;;;;;15.00;99.90;;;;;;5081982;28;20020;-67
2022/10/14 08:30:15;;;;;;;;;;;15.00;99.90;;;;;;5087376;28;19931;-67
2022/10/14 08:32:42;;;;;;;;;;;15.10;99.90;;;;;;5081118;28;20365;-66
2022/10/14 08:35:09;;;;;;;;;;;15.10;99.90;;;;;;5085183;28;20010;-66
2022/10/14 08:37:36;;;;;;;;;;;15.20;99.90;;;;;;5080621;28;19934;-67
2022/10/14 08:40:05;;;;;;;;;;;15.10;99.90;;;;;;5086980;28;19924;-67
2022/10/14 08:42:35;;;;;;;;;;;15.10;99.90;;;;;;5082160;28;20295;-67
2022/10/14 08:45:07;;;;;;;;;;;15.10;99.90;;;;;;5080974;28;20370;-66
2022/10/14 08:47:35;;;;;;;;;;;15.10;99.90;;;;;;5077228;28;20294;-67
2022/10/14 08:50:03;;;;;;;;;;;15.20;99.90;;;;;;5076577;28;19928;-66
2022/10/14 08:52:32;;;;;;;;;;;15.20;99.90;;;;;;5081285;28;19971;-66
2022/10/14 08:55:01;;;;;;;;;;;15.10;99.90;;;;;;5089458;28;20028;-65
2022/10/14 08:57:31;;;;;;;;;;;15.20;99.90;;;;;;5073709;28;19932;-65
2022/10/14 08:59:58;;;;;;;;;;;15.30;99.90;;;;;;5080114;28;20388;-66
2022/10/14 09:02:31;;;;;;;;;;;15.20;99.90;;;;;;5083153;28;20452;-67
2022/10/14 09:04:59;;;;;;;;;;;15.10;99.90;;;;;;5080004;28;20509;-66
2022/10/14 09:07:26;;;;;;;;;;;15.20;99.90;;;;;;5097750;28;20018;-66
2022/10/14 09:09:55;;;;;;;;;;;15.20;99.90;;;;;;5091028;28;19924;-66
2022/10/14 09:12:24;;;;;;;;;;;15.20;99.90;;;;;;5085805;28;19932;-66
2022/10/14 09:14:59;;;;;;;;;;;15.20;99.90;;;;;;5088524;28;20025;-66
2022/10/14 09:17:27;;;;;;;;;;;15.20;99.90;;;;;;5077118;28;19944;-66
2022/10/14 09:19:58;;;;;;;;;;;15.20;99.90;;;;;;5085346;28;20007;-66
2022/10/14 09:22:25;;;;;;;;;;;15.20;99.90;;;;;;5080376;28;20639;-66
2022/10/14 09:24:52;;;;;;;;;;;15.20;99.90;;;;;;5081638;28;19932;-66
2022/10/14 09:27:20;;;;;;;;;;;15.30;99.90;;;;;;5075741;28;19932;-66
2022/10/14 09:29:48;;;;;;;;;;;15.40;99.90;;;;;;5075854;28;20024;-67
2022/10/14 09:32:20;;;;;;;;;;;15.40;99.90;;;;;;5087195;28;19931;-67
2022/10/14 09:34:50;;;;;;;;;;;15.50;99.90;;;;;;5081497;28;20014;-66
2022/10/14 09:37:25;;;;;;;;;;;15.60;99.90;;;;;;5082072;28;20282;-66
2022/10/14 09:39:54;;;;;;;;;;;15.60;99.90;;;;;;5092935;28;20019;-66
2022/10/14 09:42:24;;;;;;;;;;;15.60;99.90;;;;;;5085055;28;19928;-64
2022/10/14 09:45:06;;;;;;;;;;;15.60;99.90;;;;;;5086074;28;19999;-66
2022/10/14 09:47:39;;;;;;;;;;;15.70;99.90;;;;;;5082472;28;20401;-64
2022/10/14 09:50:08;;;;;;;;;;;15.70;99.90;;;;;;5092664;28;19993;-64
2022/10/14 09:52:36;;;;;;;;;;;15.70;99.90;;;;;;5078929;28;20031;-65
2022/10/14 09:55:03;;;;;;;;;;;15.70;99.90;;;;;;5081281;28;20066;-64
2022/10/14 09:57:29;;;;;;;;;;;15.70;99.90;;;;;;5083010;28;20443;-65
2022/10/14 09:59:59;;;;;;;;;;;15.70;99.90;;;;;;5081036;28;20028;-65
2022/10/14 10:02:34;;;;;;;;;;;15.60;99.90;;;;;;5082333;28;19924;-65
2022/10/14 10:05:11;;;;;;;;;;;15.60;99.90;;;;;;5080490;28;19924;-65
2022/10/14 10:07:37;;;;;;;;;;;15.60;99.90;;;;;;5081877;28;20027;-65
2022/10/14 10:10:16;;;;;;;;;;;15.60;99.90;;;;;;5084844;28;19924;-65
2022/10/14 10:12:45;;;;;;;;;;;15.60;99.90;;;;;;5084274;28;19924;-65
2022/10/14 10:15:17;;;;;;;;;;;15.60;99.90;;;;;;5082202;28;20378;-66
2022/10/14 10:17:44;;;;;;;;;;;15.60;99.90;;;;;;5077881;28;20975;-66
2022/10/14 10:20:27;;;;;;;;;;;15.60;99.90;;;;;;5089635;28;19924;-66
2022/10/14 10:22:54;;;;;;;;;;;15.70;99.90;;;;;;5087812;28;20034;-66
2022/10/14 10:25:25;;;;;;;;;;;15.70;99.90;;;;;;5082915;28;19928;-66
2022/10/14 10:27:53;;;;;;;;;;;15.60;99.90;;;;;;5081336;28;20007;-66
2022/10/14 10:30:24;;;;;;;;;;;15.50;99.90;;;;;;5087151;28;20262;-66
2022/10/14 10:32:58;;;;;;;;;;;15.50;99.90;;;;;;5089623;28;19938;-66
2022/10/14 10:35:28;;;;;;;;;;;15.40;99.90;;;;;;5095432;28;19985;-67
2022/10/14 10:38:01;;;;;;;;;;;15.40;99.90;;;;;;5077447;28;19931;-66
2022/10/14 10:40:34;;;;;;;;;;;15.30;99.90;;;;;;5088235;28;20341;-66
2022/10/14 10:43:10;;;;;;;;;;;15.40;99.90;;;;;;5086875;28;19931;-66
2022/10/14 10:45:39;;;;;;;;;;;15.40;99.90;;;;;;5092487;28;20337;-67
2022/10/14 10:48:09;;;;;;;;;;;15.30;99.90;;;;;;5096239;28;20010;-67
2022/10/14 10:50:41;;;;;;;;;;;15.40;99.90;;;;;;5085816;28;20023;-66
2022/10/14 10:53:41;;;;;;;;;;;15.30;99.90;;;;;;5081783;28;19935;-67
2022/10/14 10:56:12;;;;;;;;;;;15.40;99.90;;;;;;4996349;28;20020;-66
2022/10/14 10:58:48;;;;;;;;;;;15.40;99.90;;;;;;4996772;28;19933;-67
2022/10/14 11:01:20;;;;;;;;;;;15.50;99.90;;;;;;5056947;28;19931;-66
2022/10/14 11:03:54;;;;;;;;;;;15.60;99.90;;;;;;5081133;28;20341;-67
2022/10/14 11:12:06;;;;;;;;;;;15.60;99.90;;;;;;5086778;28;19955;-68
2022/10/14 11:14:52;;;;;;;;;;;15.70;99.90;;;;;;5076626;28;20428;-68
2022/10/14 11:17:25;;;;;;;;;;;15.80;99.90;;;;;;5094121;28;19935;-67
2022/10/14 11:19:54;;;;;;;;;;;16.00;99.90;;;;;;5090203;28;20007;-67
2022/10/14 11:22:28;;;;;;;;;;;16.30;99.90;;;;;;5084497;28;19936;-67
2022/10/14 11:24:58;;;;;;;;;;;16.40;99.90;;;;;;5084107;28;19932;-68
2022/10/14 11:27:29;;;;;;;;;;;16.30;99.90;;;;;;5089300;28;20358;-67
2022/10/14 11:30:05;;;;;;;;;;;16.30;99.90;;;;;;5088471;28;20022;-67
2022/10/14 11:32:38;;;;;;;;;;;16.20;99.90;;;;;;5086885;28;19924;-67
2022/10/14 11:35:15;;;;;;;;;;;16.20;99.90;;;;;;5095737;28;20016;-68
2022/10/14 11:37:47;;;;;;;;;;;16.50;99.90;;;;;;5086267;28;19928;-68
2022/10/14 11:40:16;;;;;;;;;;;16.60;99.90;;;;;;5089906;28;19930;-67
2022/10/14 11:42:50;;;;;;;;;;;16.70;99.90;;;;;;5083611;28;20301;-68
2022/10/14 11:45:24;;;;;;;;;;;16.80;99.90;;;;;;5080899;28;19924;-67
2022/10/14 11:47:52;;;;;;;;;;;16.90;99.90;;;;;;5076601;28;19924;-66
2022/10/14 11:50:22;;;;;;;;;;;17.10;99.90;;;;;;5077071;28;20401;-66
2022/10/14 11:52:56;;;;;;;;;;;17.20;99.90;;;;;;5075033;28;19924;-66
2022/10/14 11:55:28;;;;;;;;;;;17.30;99.90;;;;;;5084592;28;21937;-66
2022/10/14 11:57:57;;;;;;;;;;;17.20;99.90;;;;;;5076540;28;19928;-68
2022/10/14 12:00:26;;;;;;;;;;;17.40;99.90;;;;;;5081610;28;19954;-68
2022/10/14 12:02:56;;;;;;;;;;;17.50;99.90;;;;;;5078734;28;20010;-67
2022/10/14 12:05:36;;;;;;;;;;;17.50;99.90;;;;;;5075945;28;19924;-67
2022/10/14 12:08:13;;;;;;;;;;;17.50;99.90;;;;;;5077756;28;20590;-67
2022/10/14 12:10:44;;;;;;;;;;;17.70;99.90;;;;;;5080369;28;20404;-67
2022/10/14 12:13:13;;;;;;;;;;;17.90;99.90;;;;;;5082399;28;20285;-67
2022/10/14 12:15:43;;;;;;;;;;;18.10;99.90;;;;;;5087838;28;20003;-67
2022/10/14 12:18:11;;;;;;;;;;;18.10;99.90;;;;;;5094270;28;20319;-67
2022/10/14 12:20:40;;;;;;;;;;;18.00;99.90;;;;;;5081663;28;19928;-66
2022/10/14 12:23:08;;;;;;;;;;;17.80;99.90;;;;;;5093573;28;20358;-67
2022/10/14 12:25:40;;;;;;;;;;;17.70;99.90;;;;;;5084461;28;20055;-67
2022/10/14 12:28:08;;;;;;;;;;;17.60;99.90;;;;;;5086455;28;20031;-67
2022/10/14 12:30:36;;;;;;;;;;;17.60;99.90;;;;;;5088074;28;19969;-67
2022/10/14 12:33:04;;;;;;;;;;;17.50;99.90;;;;;;5089437;28;19934;-67
2022/10/14 12:35:49;;;;;;;;;;;17.40;99.90;;;;;;5085067;28;20019;-67
2022/10/14 12:38:15;;;;;;;;;;;17.50;99.90;;;;;;5087443;28;19930;-67
2022/10/14 12:40:43;;;;;;;;;;;17.60;99.90;;;;;;5086612;28;19928;-66
2022/10/14 12:43:15;;;;;;;;;;;17.70;99.90;;;;;;5084460;28;20265;-66
2022/10/14 12:45:47;;;;;;;;;;;17.80;99.90;;;;;;5080440;28;20424;-66
2022/10/14 12:48:15;;;;;;;;;;;17.80;99.90;;;;;;5083780;28;20123;-65
2022/10/14 12:50:45;;;;;;;;;;;17.80;99.90;;;;;;5085284;28;19998;-66
2022/10/14 12:53:17;;;;;;;;;;;17.90;99.90;;;;;;5095371;28;20294;-65
2022/10/14 12:55:49;;;;;;;;;;;17.90;99.90;;;;;;5080395;28;19930;-66
2022/10/14 12:58:30;;;;;;;;;;;18.00;99.90;;;;;;5083178;28;19927;-65
2022/10/14 13:01:06;;;;;;;;;;;18.00;99.90;;;;;;5090843;28;19924;-65
2022/10/14 13:03:55;;;;;;;;;;;18.10;99.90;;;;;;5071108;28;19928;-65
2022/10/14 13:06:31;;;;;;;;;;;18.20;99.90;;;;;;5085000;28;19932;-65
2022/10/14 13:09:16;;;;;;;;;;;18.30;99.90;;;;;;5082958;28;20026;-65
2022/10/14 13:11:45;;;;;;;;;;;18.20;99.90;;;;;;5080435;28;19962;-65
2022/10/14 13:14:20;;;;;;;;;;;18.20;99.90;;;;;;5086160;28;19939;-64
2022/10/14 13:16:57;;;;;;;;;;;18.20;99.90;;;;;;5085300;28;20449;-65
2022/10/14 13:19:42;;;;;;;;;;;18.40;99.90;;;;;;5078025;28;19931;-64
2022/10/14 13:22:30;;;;;;;;;;;18.40;99.90;;;;;;5077996;28;22713;-65
2022/10/14 13:25:06;;;;;;;;;;;18.40;99.90;;;;;;5082630;28;20382;-65
2022/10/14 13:27:40;;;;;;;;;;;18.70;99.90;;;;;;5092038;28;19932;-65
2022/10/14 13:30:13;;;;;;;;;;;18.80;99.90;;;;;;5086175;28;20027;-66
2022/10/14 13:32:42;;;;;;;;;;;18.80;99.90;;;;;;5079449;28;20019;-66
2022/10/14 13:35:13;;;;;;;;;;;18.70;99.90;;;;;;5080036;28;19932;-66
2022/10/14 13:37:41;;;;;;;;;;;18.60;99.90;;;;;;5071397;28;19930;-65
2022/10/14 13:40:19;;;;;;;;;;;18.50;99.90;;;;;;5079341;28;20031;-66
2022/10/14 13:42:49;;;;;;;;;;;18.40;99.90;;;;;;5083686;28;19923;-67
2022/10/14 13:45:32;;;;;;;;;;;18.20;99.90;;;;;;5089708;28;19930;-68
2022/10/14 13:48:00;;;;;;;;;;;18.10;99.90;;;;;;5080819;28;19946;-67
2022/10/14 13:50:31;;;;;;;;;;;17.90;99.90;;;;;;5079467;28;20297;-66
2022/10/14 13:53:00;;;;;;;;;;;17.90;99.90;;;;;;5075911;28;19940;-67
2022/10/14 13:55:28;;;;;;;;;;;18.00;99.90;;;;;;5076786;28;19936;-67
2022/10/14 13:58:27;;;;;;;;;;;18.00;99.90;;;;;;5074091;28;20444;-67
2022/10/14 14:01:00;;;;;;;;;;;18.00;99.90;;;;;;5073780;28;19951;-65
2022/10/14 14:03:29;;;;;;;;;;;18.00;99.90;;;;;;5073625;28;19932;-66
2022/10/14 14:05:56;;;;;;;;;;;17.90;99.90;;;;;;5074854;28;19924;-65
2022/10/14 14:08:24;;;;;;;;;;;17.90;99.90;;;;;;5070362;28;19932;-66
2022/10/14 14:10:52;;;;;;;;;;;17.80;99.90;;;;;;5073287;28;20030;-67
2022/10/14 14:13:21;;;;;;;;;;;17.80;99.90;;;;;;5077182;28;20410;-66
2022/10/14 14:15:52;;;;;;;;;;;17.80;99.90;;;;;;5072246;28;20466;-65
2022/10/14 14:18:33;;;;;;;;;;;17.70;99.90;;;;;;5101320;22;20293;-67
2022/10/14 14:21:00;;;;;;;;;;;17.70;99.90;;;;;;5095652;28;19924;-67
2022/10/14 14:23:27;;;;;;;;;;;17.80;99.90;;;;;;5094304;28;19953;-67
2022/10/14 14:25:54;;;;;;;;;;;17.80;99.90;;;;;;5097178;28;20034;-66
2022/10/14 14:28:23;;;;;;;;;;;17.90;99.90;;;;;;5095351;28;20243;-67
2022/10/14 14:30:51;;;;;;;;;;;18.00;99.90;;;;;;5102985;28;20390;-66
2022/10/14 14:33:20;;;;;;;;;;;18.00;99.90;;;;;;5108342;28;20571;-66
2022/10/14 14:35:52;;;;;;;;;;;17.90;99.90;;;;;;5108695;28;19924;-67